sensor_id;sensor_type;location;lat;lon;timestamp;pressure;altitude;pressure_sealevel;temperature;humidity
38038;BME280;23843;51.320;12.340;2022-09-09T04:32:09;99932.53;;;15.41;83.56
38038;BME280;23843;51.320;12.340;2022-09-09T04:34:34;99924.41;;;15.43;83.72
38038;BME280;23843;51.320;12.340;2022-09-09T04:36:59;99917.38;;;15.41;83.65
38038;BME280;23843;51.320;12.340;2022-09-09T04:39:25;99930.72;;;15.41;83.58
38038;BME280;23843;51.320;12.340;2022-09-09T04:41:50;99925.13;;;15.45;83.93
38038;BME280;23843;51.320;12.340;2022-09-09T04:44:15;99929.38;;;15.47;83.90
38038;BME280;23843;51.320;12.340;2022-09-09T04:46:41;99936.28;;;15.50;84.10
38038;BME280;23843;51.320;12.340;2022-09-09T04:49:07;99928.16;;;15.51;84.04
38038;BME280;23843;51.320;12.340;2022-09-09T04:51:33;99925.34;;;15.53;84.24
38038;BME280;23843;51.320;12.340;2022-09-09T04:53:58;99927.06;;;15.54;83.88
38038;BME280;23843;51.320;12.340;2022-09-09T04:56:24;99933.97;;;15.56;83.76
38038;BME280;23843;51.320;12.340;2022-09-09T04:58:49;99937.22;;;15.60;83.95
38038;BME280;23843;51.320;12.340;2022-09-09T05:01:16;99940.34;;;15.65;83.99
38038;BME280;23843;51.320;12.340;2022-09-09T05:03:42;99938.19;;;15.70;83.68
38038;BME280;23843;51.320;12.340;2022-09-09T05:06:10;99952.88;;;15.76;83.58
38038;BME280;23843;51.320;12.340;2022-09-09T05:08:36;99947.00;;;15.82;83.42
38038;BME280;23843;51.320;12.340;2022-09-09T05:11:03;99951.03;;;15.88;83.38
38038;BME280;23843;51.320;12.340;2022-09-09T05:13:28;99947.94;;;15.92;83.12
38038;BME280;23843;51.320;12.340;2022-09-09T05:15:54;99946.59;;;15.98;83.09
38038;BME280;23843;51.320;12.340;2022-09-09T05:18:19;99946.94;;;16.04;83.17
38038;BME280;23843;51.320;12.340;2022-09-09T05:20:47;99950.94;;;16.10;82.87
38038;BME280;23843;51.320;12.340;2022-09-09T05:23:14;99954.78;;;16.17;82.87
38038;BME280;23843;51.320;12.340;2022-09-09T05:25:40;99949.91;;;16.22;82.50
38038;BME280;23843;51.320;12.340;2022-09-09T05:28:05;99962.03;;;16.26;82.49
38038;BME280;23843;51.320;12.340;2022-09-09T05:30:31;99960.66;;;16.32;82.33
38038;BME280;23843;51.320;12.340;2022-09-09T05:32:56;99961.50;;;16.33;81.89
38038;BME280;23843;51.320;12.340;2022-09-09T05:35:22;99963.06;;;16.35;81.86
38038;BME280;23843;51.320;12.340;2022-09-09T05:37:47;99966.72;;;16.34;81.80
38038;BME280;23843;51.320;12.340;2022-09-09T05:40:14;99954.94;;;16.37;81.92
38038;BME280;23843;51.320;12.340;2022-09-09T05:42:40;99954.38;;;16.43;81.72
38038;BME280;23843;51.320;12.340;2022-09-09T05:45:06;99952.16;;;16.48;81.26
38038;BME280;23843;51.320;12.340;2022-09-09T05:47:31;99953.63;;;16.52;81.33
38038;BME280;23843;51.320;12.340;2022-09-09T05:49:57;99952.38;;;16.56;80.90
38038;BME280;23843;51.320;12.340;2022-09-09T05:52:22;99951.28;;;16.59;80.83
38038;BME280;23843;51.320;12.340;2022-09-09T05:54:48;99956.22;;;16.63;80.75
38038;BME280;23843;51.320;12.340;2022-09-09T05:57:14;99946.81;;;16.69;80.53
38038;BME280;23843;51.320;12.340;2022-09-09T05:59:40;99956.13;;;16.75;80.47
38038;BME280;23843;51.320;12.340;2022-09-09T06:02:05;99954.66;;;16.82;80.50
38038;BME280;23843;51.320;12.340;2022-09-09T06:04:30;99953.16;;;16.89;80.38
38038;BME280;23843;51.320;12.340;2022-09-09T06:06:56;99954.19;;;16.98;80.13
38038;BME280;23843;51.320;12.340;2022-09-09T06:09:21;99948.44;;;17.02;80.18
38038;BME280;23843;51.320;12.340;2022-09-09T06:11:47;99952.50;;;17.06;79.76
38038;BME280;23843;51.320;12.340;2022-09-09T06:14:14;99953.84;;;17.12;79.36
38038;BME280;23843;51.320;12.340;2022-09-09T06:16:39;99949.63;;;17.19;78.92
38038;BME280;23843;51.320;12.340;2022-09-09T06:19:04;99944.00;;;17.22;78.54
38038;BME280;23843;51.320;12.340;2022-09-09T06:21:31;99955.28;;;17.26;78.59
38038;BME280;23843;51.320;12.340;2022-09-09T06:23:57;99944.03;;;17.32;78.85
38038;BME280;23843;51.320;12.340;2022-09-09T06:26:23;99943.47;;;17.38;77.92
38038;BME280;23843;51.320;12.340;2022-09-09T06:28:52;99939.81;;;17.39;77.91
38038;BME280;23843;51.320;12.340;2022-09-09T06:31:21;99946.56;;;17.43;76.77
38038;BME280;23843;51.320;12.340;2022-09-09T06:33:47;99950.69;;;17.47;77.35
38038;BME280;23843;51.320;12.340;2022-09-09T06:36:16;99948.44;;;17.52;76.99
38038;BME280;23843;51.320;12.340;2022-09-09T06:38:42;99945.22;;;17.59;76.57
38038;BME280;23843;51.320;12.340;2022-09-09T06:41:08;99944.38;;;17.58;76.10
38038;BME280;23843;51.320;12.340;2022-09-09T06:43:34;99951.13;;;17.62;76.20
38038;BME280;23843;51.320;12.340;2022-09-09T06:46:01;99949.59;;;17.69;76.58
38038;BME280;23843;51.320;12.340;2022-09-09T06:48:28;99947.75;;;17.70;75.98
38038;BME280;23843;51.320;12.340;2022-09-09T06:51:03;99950.75;;;17.76;75.61
38038;BME280;23843;51.320;12.340;2022-09-09T06:53:29;99952.03;;;17.82;75.37
38038;BME280;23843;51.320;12.340;2022-09-09T06:55:54;99958.28;;;17.92;75.90
38038;BME280;23843;51.320;12.340;2022-09-09T06:58:20;99952.75;;;18.23;76.13
38038;BME280;23843;51.320;12.340;2022-09-09T07:00:45;99954.97;;;19.14;72.52
38038;BME280;23843;51.320;12.340;2022-09-09T07:03:11;99954.78;;;20.34;72.65
38038;BME280;23843;51.320;12.340;2022-09-09T07:05:38;99958.41;;;21.29;68.98
38038;BME280;23843;51.320;12.340;2022-09-09T07:08:04;99958.06;;;21.24;65.98
38038;BME280;23843;51.320;12.340;2022-09-09T07:10:29;99954.25;;;21.09;65.50
38038;BME280;23843;51.320;12.340;2022-09-09T07:12:54;99955.88;;;21.28;65.32
38038;BME280;23843;51.320;12.340;2022-09-09T07:15:20;99950.34;;;21.37;59.97
38038;BME280;23843;51.320;12.340;2022-09-09T07:17:45;99953.09;;;21.46;64.69
38038;BME280;23843;51.320;12.340;2022-09-09T07:20:11;99944.09;;;21.63;62.09
38038;BME280;23843;51.320;12.340;2022-09-09T07:22:38;99947.53;;;22.14;61.42
38038;BME280;23843;51.320;12.340;2022-09-09T07:25:04;99942.63;;;23.31;60.76
38038;BME280;23843;51.320;12.340;2022-09-09T07:27:29;99943.50;;;24.17;57.70
38038;BME280;23843;51.320;12.340;2022-09-09T07:29:55;99938.91;;;25.38;55.23
38038;BME280;23843;51.320;12.340;2022-09-09T07:32:20;99935.81;;;25.92;52.25
38038;BME280;23843;51.320;12.340;2022-09-09T07:34:46;99942.91;;;26.15;52.59
38038;BME280;23843;51.320;12.340;2022-09-09T07:37:11;99947.03;;;26.54;45.62
38038;BME280;23843;51.320;12.340;2022-09-09T07:39:38;99939.31;;;26.85;49.38
38038;BME280;23843;51.320;12.340;2022-09-09T07:42:03;99947.09;;;27.23;46.96
38038;BME280;23843;51.320;12.340;2022-09-09T07:44:29;99950.56;;;26.82;47.78
38038;BME280;23843;51.320;12.340;2022-09-09T07:46:54;99959.81;;;26.60;48.14
38038;BME280;23843;51.320;12.340;2022-09-09T07:49:20;99956.88;;;26.89;47.04
38038;BME280;23843;51.320;12.340;2022-09-09T07:51:46;99950.03;;;27.22;47.04
38038;BME280;23843;51.320;12.340;2022-09-09T07:54:13;99952.81;;;27.96;46.95
38038;BME280;23843;51.320;12.340;2022-09-09T07:56:41;99947.31;;;29.36;44.50
38038;BME280;23843;51.320;12.340;2022-09-09T07:59:07;99954.06;;;30.11;42.07
38038;BME280;23843;51.320;12.340;2022-09-09T08:01:34;99966.34;;;30.83;39.62
38038;BME280;23843;51.320;12.340;2022-09-09T08:04:02;99968.66;;;29.98;38.02
38038;BME280;23843;51.320;12.340;2022-09-09T08:06:29;99957.03;;;31.09;39.05
38038;BME280;23843;51.320;12.340;2022-09-09T08:08:55;99964.72;;;32.82;35.97
38038;BME280;23843;51.320;12.340;2022-09-09T08:11:22;99965.81;;;32.93;31.74
38038;BME280;23843;51.320;12.340;2022-09-09T08:13:51;99966.41;;;33.07;34.07
38038;BME280;23843;51.320;12.340;2022-09-09T08:16:18;99962.53;;;32.37;29.63
38038;BME280;23843;51.320;12.340;2022-09-09T08:18:44;99959.00;;;31.21;34.07
38038;BME280;23843;51.320;12.340;2022-09-09T08:21:11;99963.03;;;29.93;38.11
38038;BME280;23843;51.320;12.340;2022-09-09T08:23:37;99970.00;;;29.23;39.42
38038;BME280;23843;51.320;12.340;2022-09-09T08:26:04;99966.47;;;28.96;38.04
38038;BME280;23843;51.320;12.340;2022-09-09T08:28:30;99959.91;;;29.31;43.06
38038;BME280;23843;51.320;12.340;2022-09-09T08:31:05;99961.78;;;30.20;41.61
38038;BME280;23843;51.320;12.340;2022-09-09T08:33:30;99967.91;;;32.02;38.77
38038;BME280;23843;51.320;12.340;2022-09-09T08:35:56;99964.47;;;31.76;35.07
38038;BME280;23843;51.320;12.340;2022-09-09T08:38:21;99965.78;;;31.55;35.67
38038;BME280;23843;51.320;12.340;2022-09-09T08:40:49;99964.66;;;31.93;36.59
38038;BME280;23843;51.320;12.340;2022-09-09T08:43:19;99961.25;;;33.34;34.35
38038;BME280;23843;51.320;12.340;2022-09-09T08:45:50;99956.06;;;35.25;30.26
38038;BME280;23843;51.320;12.340;2022-09-09T08:48:35;99966.16;;;36.77;30.24
38038;BME280;23843;51.320;12.340;2022-09-09T08:51:03;99969.56;;;36.89;25.53
38038;BME280;23843;51.320;12.340;2022-09-09T08:53:38;99959.88;;;37.24;25.59
38038;BME280;23843;51.320;12.340;2022-09-09T08:56:10;99969.69;;;37.62;26.38
38038;BME280;23843;51.320;12.340;2022-09-09T08:58:42;99963.16;;;37.99;26.32
38038;BME280;23843;51.320;12.340;2022-09-09T09:01:22;99957.94;;;38.18;23.20
38038;BME280;23843;51.320;12.340;2022-09-09T09:03:59;99959.03;;;38.43;24.06
38038;BME280;23843;51.320;12.340;2022-09-09T09:06:34;99954.66;;;38.47;25.42
38038;BME280;23843;51.320;12.340;2022-09-09T09:09:08;99960.59;;;37.77;23.29
38038;BME280;23843;51.320;12.340;2022-09-09T09:11:37;99954.97;;;35.97;24.81
38038;BME280;23843;51.320;12.340;2022-09-09T09:14:08;99951.47;;;34.24;27.86
38038;BME280;23843;51.320;12.340;2022-09-09T09:16:39;99953.41;;;33.02;30.47
38038;BME280;23843;51.320;12.340;2022-09-09T09:19:13;99962.38;;;31.90;30.63
38038;BME280;23843;51.320;12.340;2022-09-09T09:21:42;99955.19;;;30.85;33.68
38038;BME280;23843;51.320;12.340;2022-09-09T09:24:15;99955.22;;;30.53;35.24
38038;BME280;23843;51.320;12.340;2022-09-09T09:26:42;99961.97;;;30.76;35.13
38038;BME280;23843;51.320;12.340;2022-09-09T09:29:10;99959.44;;;30.24;34.82
38038;BME280;23843;51.320;12.340;2022-09-09T09:31:36;99959.50;;;29.85;36.64
38038;BME280;23843;51.320;12.340;2022-09-09T09:34:01;99956.06;;;29.45;35.44
38038;BME280;23843;51.320;12.340;2022-09-09T09:36:37;99957.03;;;28.99;36.35
38038;BME280;23843;51.320;12.340;2022-09-09T09:39:04;99953.31;;;28.60;38.34
38038;BME280;23843;51.320;12.340;2022-09-09T09:41:32;99962.13;;;28.49;39.36
38038;BME280;23843;51.320;12.340;2022-09-09T09:43:59;99956.25;;;28.45;37.67
38038;BME280;23843;51.320;12.340;2022-09-09T09:46:25;99955.34;;;28.11;38.86
38038;BME280;23843;51.320;12.340;2022-09-09T09:48:56;99955.72;;;27.88;39.62
38038;BME280;23843;51.320;12.340;2022-09-09T09:51:22;99953.97;;;27.67;38.99
38038;BME280;23843;51.320;12.340;2022-09-09T09:53:50;99957.28;;;27.56;39.61
38038;BME280;23843;51.320;12.340;2022-09-09T09:56:16;99961.19;;;27.88;39.09
38038;BME280;23843;51.320;12.340;2022-09-09T09:58:50;99965.78;;;27.88;38.08
38038;BME280;23843;51.320;12.340;2022-09-09T10:01:21;99959.09;;;27.90;38.92
38038;BME280;23843;51.320;12.340;2022-09-09T10:03:51;99958.69;;;27.93;38.63
38038;BME280;23843;51.320;12.340;2022-09-09T10:06:16;99962.44;;;27.99;38.37
38038;BME280;23843;51.320;12.340;2022-09-09T10:08:45;99964.47;;;27.70;38.02
38038;BME280;23843;51.320;12.340;2022-09-09T10:11:27;99962.94;;;27.61;39.41
38038;BME280;23843;51.320;12.340;2022-09-09T10:14:00;99965.38;;;27.43;38.31
38038;BME280;23843;51.320;12.340;2022-09-09T10:16:40;99968.88;;;27.30;39.64
38038;BME280;23843;51.320;12.340;2022-09-09T10:19:13;99958.47;;;27.40;40.10
38038;BME280;23843;51.320;12.340;2022-09-09T10:22:05;99961.41;;;27.39;39.91
38038;BME280;23843;51.320;12.340;2022-09-09T10:24:46;99961.94;;;26.93;41.93
38038;BME280;23843;51.320;12.340;2022-09-09T10:27:20;99956.72;;;26.63;41.91
38038;BME280;23843;51.320;12.340;2022-09-09T10:30:03;99952.31;;;26.40;41.67
38038;BME280;23843;51.320;12.340;2022-09-09T10:32:36;99951.47;;;26.40;41.64
38038;BME280;23843;51.320;12.340;2022-09-09T10:35:08;99950.97;;;26.08;42.01
38038;BME280;23843;51.320;12.340;2022-09-09T10:37:41;99958.72;;;25.75;42.81
38038;BME280;23843;51.320;12.340;2022-09-09T10:40:20;99950.38;;;25.55;43.39
38038;BME280;23843;51.320;12.340;2022-09-09T10:42:49;99945.16;;;25.53;43.56
38038;BME280;23843;51.320;12.340;2022-09-09T10:45:17;99946.28;;;25.44;43.66
38038;BME280;23843;51.320;12.340;2022-09-09T10:47:53;99951.44;;;25.39;43.66
38038;BME280;23843;51.320;12.340;2022-09-09T10:50:35;99944.44;;;25.30;43.92
38038;BME280;23843;51.320;12.340;2022-09-09T10:53:14;99947.16;;;25.30;44.50
38038;BME280;23843;51.320;12.340;2022-09-09T10:55:43;99942.47;;;25.24;45.17
38038;BME280;23843;51.320;12.340;2022-09-09T10:58:15;99943.66;;;25.06;44.88
38038;BME280;23843;51.320;12.340;2022-09-09T11:00:47;99940.22;;;24.97;45.14
38038;BME280;23843;51.320;12.340;2022-09-09T11:03:18;99941.78;;;24.92;45.61
38038;BME280;23843;51.320;12.340;2022-09-09T11:05:46;99938.63;;;24.73;44.31
38038;BME280;23843;51.320;12.340;2022-09-09T11:08:18;99936.75;;;24.74;45.19
38038;BME280;23843;51.320;12.340;2022-09-09T11:10:48;99940.56;;;24.80;45.85
38038;BME280;23843;51.320;12.340;2022-09-09T11:13:20;99945.72;;;24.89;45.81
38038;BME280;23843;51.320;12.340;2022-09-09T11:15:50;99934.69;;;24.91;45.18
38038;BME280;23843;51.320;12.340;2022-09-09T11:18:19;99943.00;;;24.74;45.14
38038;BME280;23843;51.320;12.340;2022-09-09T11:20:47;99944.75;;;24.67;45.44
38038;BME280;23843;51.320;12.340;2022-09-09T11:23:17;99930.28;;;24.75;45.76
38038;BME280;23843;51.320;12.340;2022-09-09T11:25:48;99925.91;;;24.89;46.49
38038;BME280;23843;51.320;12.340;2022-09-09T11:28:35;99920.50;;;24.89;45.68
38038;BME280;23843;51.320;12.340;2022-09-09T11:31:21;99911.91;;;25.00;46.41
38038;BME280;23843;51.320;12.340;2022-09-09T11:33:58;99906.56;;;25.07;44.74
38038;BME280;23843;51.320;12.340;2022-09-09T11:39:55;99916.84;;;24.96;45.01
38038;BME280;23843;51.320;12.340;2022-09-09T11:42:25;99911.53;;;24.88;44.49
38038;BME280;23843;51.320;12.340;2022-09-09T11:44:52;99917.59;;;24.75;44.69
38038;BME280;23843;51.320;12.340;2022-09-09T11:47:23;99920.59;;;24.66;44.66
38038;BME280;23843;51.320;12.340;2022-09-09T11:49:49;99917.94;;;24.72;45.31
38038;BME280;23843;51.320;12.340;2022-09-09T11:52:21;99921.53;;;24.73;45.32
38038;BME280;23843;51.320;12.340;2022-09-09T11:54:48;99912.53;;;24.72;45.39
38038;BME280;23843;51.320;12.340;2022-09-09T11:57:24;99911.53;;;24.73;44.71
38038;BME280;23843;51.320;12.340;2022-09-09T11:59:51;99916.09;;;24.73;43.99
38038;BME280;23843;51.320;12.340;2022-09-09T12:02:22;99903.56;;;24.72;44.56
38038;BME280;23843;51.320;12.340;2022-09-09T12:04:54;99906.28;;;24.72;45.16
38038;BME280;23843;51.320;12.340;2022-09-09T12:07:27;99904.50;;;24.64;44.48
38038;BME280;23843;51.320;12.340;2022-09-09T12:09:57;99923.56;;;24.56;43.83
38038;BME280;23843;51.320;12.340;2022-09-09T12:12:27;99921.19;;;24.53;44.92
38038;BME280;23843;51.320;12.340;2022-09-09T12:15:20;99920.56;;;24.51;45.19
38038;BME280;23843;51.320;12.340;2022-09-09T12:17:49;99919.06;;;24.48;45.53
38038;BME280;23843;51.320;12.340;2022-09-09T12:20:16;99906.03;;;24.44;45.60
38038;BME280;23843;51.320;12.340;2022-09-09T12:25:35;99904.50;;;24.49;45.57
38038;BME280;23843;51.320;12.340;2022-09-09T12:28:05;99898.41;;;24.47;45.14
38038;BME280;23843;51.320;12.340;2022-09-09T12:30:41;99891.13;;;24.48;44.64
38038;BME280;23843;51.320;12.340;2022-09-09T12:33:15;99893.16;;;24.46;43.76
38038;BME280;23843;51.320;12.340;2022-09-09T12:35:43;99887.31;;;24.57;42.79
38038;BME280;23843;51.320;12.340;2022-09-09T12:38:14;99896.75;;;24.61;43.21
38038;BME280;23843;51.320;12.340;2022-09-09T12:40:40;99889.09;;;24.65;43.66
38038;BME280;23843;51.320;12.340;2022-09-09T12:43:17;99881.53;;;24.60;43.31
38038;BME280;23843;51.320;12.340;2022-09-09T12:45:43;99883.34;;;24.45;43.06
38038;BME280;23843;51.320;12.340;2022-09-09T12:48:11;99889.97;;;24.42;43.80
38038;BME280;23843;51.320;12.340;2022-09-09T12:50:43;99883.91;;;24.40;43.47
38038;BME280;23843;51.320;12.340;2022-09-09T12:53:12;99880.63;;;24.30;43.65
38038;BME280;23843;51.320;12.340;2022-09-09T12:55:39;99868.28;;;24.27;43.02
38038;BME280;23843;51.320;12.340;2022-09-09T12:58:05;99873.34;;;24.30;42.82
38038;BME280;23843;51.320;12.340;2022-09-09T13:00:32;99866.25;;;24.29;43.42
38038;BME280;23843;51.320;12.340;2022-09-09T13:02:59;99868.75;;;24.31;43.19
38038;BME280;23843;51.320;12.340;2022-09-09T13:05:28;99869.63;;;24.31;43.52
38038;BME280;23843;51.320;12.340;2022-09-09T13:08:02;99859.50;;;24.25;43.00
38038;BME280;23843;51.320;12.340;2022-09-09T13:10:30;99869.38;;;24.18;43.62
38038;BME280;23843;51.320;12.340;2022-09-09T13:12:56;99871.63;;;24.14;44.10
38038;BME280;23843;51.320;12.340;2022-09-09T13:15:24;99865.94;;;24.09;43.83
38038;BME280;23843;51.320;12.340;2022-09-09T13:17:52;99863.41;;;24.08;43.96
38038;BME280;23843;51.320;12.340;2022-09-09T13:20:20;99868.03;;;23.99;43.93
38038;BME280;23843;51.320;12.340;2022-09-09T13:22:49;99858.94;;;23.92;44.17
38038;BME280;23843;51.320;12.340;2022-09-09T13:25:19;99856.63;;;23.89;44.55
38038;BME280;23843;51.320;12.340;2022-09-09T13:27:53;99858.06;;;23.77;44.31
38038;BME280;23843;51.320;12.340;2022-09-09T13:30:23;99860.63;;;23.70;44.27
38038;BME280;23843;51.320;12.340;2022-09-09T13:33:00;99866.75;;;23.64;44.72
38038;BME280;23843;51.320;12.340;2022-09-09T13:35:25;99865.72;;;23.65;44.61
38038;BME280;23843;51.320;12.340;2022-09-09T13:37:52;99855.94;;;23.64;44.63
38038;BME280;23843;51.320;12.340;2022-09-09T13:40:20;99856.59;;;23.66;44.94
38038;BME280;23843;51.320;12.340;2022-09-09T13:42:46;99856.59;;;23.66;44.69
38038;BME280;23843;51.320;12.340;2022-09-09T13:45:16;99860.31;;;23.65;44.48
38038;BME280;23843;51.320;12.340;2022-09-09T13:47:43;99853.91;;;23.66;44.68
38038;BME280;23843;51.320;12.340;2022-09-09T13:50:21;99863.03;;;23.65;45.30
38038;BME280;23843;51.320;12.340;2022-09-09T13:52:47;99879.25;;;23.65;45.92
38038;BME280;23843;51.320;12.340;2022-09-09T13:55:14;99887.66;;;23.47;46.74
38038;BME280;23843;51.320;12.340;2022-09-09T13:57:50;99898.44;;;23.16;44.97
38038;BME280;23843;51.320;12.340;2022-09-09T14:00:16;99877.66;;;22.69;44.78
38038;BME280;23843;51.320;12.340;2022-09-09T14:02:41;99885.16;;;22.34;45.33
38038;BME280;23843;51.320;12.340;2022-09-09T14:05:06;99889.00;;;22.15;46.20
38038;BME280;23843;51.320;12.340;2022-09-09T14:07:32;99898.47;;;22.02;46.77
38038;BME280;23843;51.320;12.340;2022-09-09T14:09:57;99883.44;;;21.92;45.95
38038;BME280;23843;51.320;12.340;2022-09-09T14:12:24;99881.91;;;21.89;46.86
38038;BME280;23843;51.320;12.340;2022-09-09T14:14:50;99890.88;;;21.90;48.27
38038;BME280;23843;51.320;12.340;2022-09-09T14:17:15;99891.72;;;21.90;47.87
38038;BME280;23843;51.320;12.340;2022-09-09T14:19:40;99888.81;;;21.92;47.94
38038;BME280;23843;51.320;12.340;2022-09-09T14:22:06;99884.63;;;21.97;48.33
38038;BME280;23843;51.320;12.340;2022-09-09T14:24:31;99883.59;;;22.07;48.79
38038;BME280;23843;51.320;12.340;2022-09-09T14:26:56;99882.59;;;22.08;49.54
38038;BME280;23843;51.320;12.340;2022-09-09T14:29:23;99874.00;;;22.12;50.39
38038;BME280;23843;51.320;12.340;2022-09-09T14:31:49;99865.56;;;22.15;50.85
38038;BME280;23843;51.320;12.340;2022-09-09T14:34:14;99872.16;;;22.05;51.64
38038;BME280;23843;51.320;12.340;2022-09-09T14:36:40;99878.06;;;22.08;52.45
38038;BME280;23843;51.320;12.340;2022-09-09T14:39:05;99878.41;;;22.05;52.36
38038;BME280;23843;51.320;12.340;2022-09-09T14:41:31;99865.25;;;22.02;52.60
38038;BME280;23843;51.320;12.340;2022-09-09T14:43:56;99866.09;;;22.02;52.80
38038;BME280;23843;51.320;12.340;2022-09-09T14:46:23;99857.16;;;22.10;52.54
38038;BME280;23843;51.320;12.340;2022-09-09T14:48:48;99861.53;;;22.19;52.19
38038;BME280;23843;51.320;12.340;2022-09-09T14:51:16;99854.47;;;22.27;51.49
38038;BME280;23843;51.320;12.340;2022-09-09T14:53:42;99854.59;;;22.33;52.21
38038;BME280;23843;51.320;12.340;2022-09-09T14:56:09;99854.09;;;22.38;51.31
38038;BME280;23843;51.320;12.340;2022-09-09T14:58:35;99853.44;;;22.44;51.84
38038;BME280;23843;51.320;12.340;2022-09-09T15:01:05;99855.25;;;22.52;52.15
38038;BME280;23843;51.320;12.340;2022-09-09T15:03:32;99853.38;;;22.60;51.85
38038;BME280;23843;51.320;12.340;2022-09-09T15:05:57;99855.22;;;22.68;52.27
38038;BME280;23843;51.320;12.340;2022-09-09T15:08:23;99857.41;;;22.73;52.50
38038;BME280;23843;51.320;12.340;2022-09-09T15:10:49;99863.97;;;22.78;52.77
38038;BME280;23843;51.320;12.340;2022-09-09T15:13:14;99861.06;;;22.80;53.07
38038;BME280;23843;51.320;12.340;2022-09-09T15:15:40;99861.25;;;22.78;53.45
38038;BME280;23843;51.320;12.340;2022-09-09T15:18:05;99866.16;;;22.75;53.43
38038;BME280;23843;51.320;12.340;2022-09-09T15:20:32;99868.72;;;22.68;53.32
38038;BME280;23843;51.320;12.340;2022-09-09T15:22:57;99868.88;;;22.67;53.21
38038;BME280;23843;51.320;12.340;2022-09-09T15:25:22;99867.53;;;22.62;53.33
38038;BME280;23843;51.320;12.340;2022-09-09T15:27:48;99867.06;;;22.59;53.27
38038;BME280;23843;51.320;12.340;2022-09-09T15:30:13;99866.38;;;22.57;53.91
38038;BME280;23843;51.320;12.340;2022-09-09T15:32:38;99865.53;;;22.56;53.98
38038;BME280;23843;51.320;12.340;2022-09-09T15:35:05;99859.81;;;22.51;52.64
38038;BME280;23843;51.320;12.340;2022-09-09T15:37:31;99857.28;;;22.50;51.54
38038;BME280;23843;51.320;12.340;2022-09-09T15:39:57;99863.53;;;22.50;51.33
38038;BME280;23843;51.320;12.340;2022-09-09T15:42:22;99861.84;;;22.49;51.15
38038;BME280;23843;51.320;12.340;2022-09-09T15:44:48;99861.84;;;22.49;50.93
38038;BME280;23843;51.320;12.340;2022-09-09T15:47:13;99863.03;;;22.47;49.92
38038;BME280;23843;51.320;12.340;2022-09-09T15:49:38;99866.25;;;22.42;50.13
38038;BME280;23843;51.320;12.340;2022-09-09T15:52:04;99862.22;;;22.30;49.89
38038;BME280;23843;51.320;12.340;2022-09-09T15:54:33;99860.72;;;22.27;50.42
38038;BME280;23843;51.320;12.340;2022-09-09T15:57:00;99868.28;;;22.23;50.36
38038;BME280;23843;51.320;12.340;2022-09-09T15:59:27;99863.56;;;22.17;50.82
38038;BME280;23843;51.320;12.340;2022-09-09T16:01:53;99860.19;;;22.15;50.88
38038;BME280;23843;51.320;12.340;2022-09-09T16:04:20;99868.63;;;22.12;50.69
38038;BME280;23843;51.320;12.340;2022-09-09T16:06:46;99859.16;;;22.08;50.58
38038;BME280;23843;51.320;12.340;2022-09-09T16:09:11;99857.81;;;22.04;50.30
38038;BME280;23843;51.320;12.340;2022-09-09T16:11:38;99858.16;;;22.01;50.12
38038;BME280;23843;51.320;12.340;2022-09-09T16:14:04;99856.81;;;21.97;49.75
38038;BME280;23843;51.320;12.340;2022-09-09T16:16:30;99856.66;;;21.90;49.83
38038;BME280;23843;51.320;12.340;2022-09-09T16:18:57;99855.28;;;21.86;49.79
38038;BME280;23843;51.320;12.340;2022-09-09T16:21:24;99849.22;;;21.84;50.34
38038;BME280;23843;51.320;12.340;2022-09-09T16:23:50;99857.50;;;21.83;50.05
38038;BME280;23843;51.320;12.340;2022-09-09T16:26:17;99854.28;;;21.79;50.05
38038;BME280;23843;51.320;12.340;2022-09-09T16:28:44;99852.09;;;21.74;49.88
38038;BME280;23843;51.320;12.340;2022-09-09T16:31:12;99863.38;;;21.70;49.74
38038;BME280;23843;51.320;12.340;2022-09-09T16:33:38;99855.97;;;21.64;49.85
38038;BME280;23843;51.320;12.340;2022-09-09T16:36:08;99853.75;;;21.59;49.97
38038;BME280;23843;51.320;12.340;2022-09-09T16:38:33;99855.94;;;21.55;49.92
38038;BME280;23843;51.320;12.340;2022-09-09T16:40:59;99854.41;;;21.53;50.12
38038;BME280;23843;51.320;12.340;2022-09-09T16:43:24;99850.53;;;21.47;50.26
38038;BME280;23843;51.320;12.340;2022-09-09T16:45:51;99855.44;;;21.44;50.60
38038;BME280;23843;51.320;12.340;2022-09-09T16:48:16;99854.06;;;21.40;50.67
38038;BME280;23843;51.320;12.340;2022-09-09T16:50:42;99854.38;;;21.36;50.68
38038;BME280;23843;51.320;12.340;2022-09-09T16:53:07;99854.03;;;21.31;50.95
38038;BME280;23843;51.320;12.340;2022-09-09T16:55:32;99861.56;;;21.28;51.06
38038;BME280;23843;51.320;12.340;2022-09-09T16:57:58;99862.25;;;21.22;51.32
38038;BME280;23843;51.320;12.340;2022-09-09T17:00:23;99856.34;;;21.18;51.33
38038;BME280;23843;51.320;12.340;2022-09-09T17:02:50;99866.41;;;21.16;51.64
38038;BME280;23843;51.320;12.340;2022-09-09T17:05:15;99869.44;;;21.13;51.64
38038;BME280;23843;51.320;12.340;2022-09-09T17:07:41;99877.84;;;21.10;51.33
38038;BME280;23843;51.320;12.340;2022-09-09T17:10:07;99881.88;;;21.06;51.52
38038;BME280;23843;51.320;12.340;2022-09-09T17:12:33;99879.50;;;21.03;51.16
38038;BME280;23843;51.320;12.340;2022-09-09T17:14:58;99888.06;;;20.98;50.92
38038;BME280;23843;51.320;12.340;2022-09-09T17:17:23;99883.16;;;20.93;51.10
38038;BME280;23843;51.320;12.340;2022-09-09T17:19:50;99877.44;;;20.88;50.47
38038;BME280;23843;51.320;12.340;2022-09-09T17:22:15;99890.53;;;20.83;50.39
38038;BME280;23843;51.320;12.340;2022-09-09T17:24:41;99887.16;;;20.81;50.29
38038;BME280;23843;51.320;12.340;2022-09-09T17:27:06;99894.03;;;20.76;50.07
38038;BME280;23843;51.320;12.340;2022-09-09T17:29:32;99897.19;;;20.71;50.16
38038;BME280;23843;51.320;12.340;2022-09-09T17:31:57;99897.53;;;20.68;49.79